UAL36 KBOS-EGPH
Flight info
| Callsign | UAL36 |
|---|---|
| Flight time | N/A |
| Altitude | 35000 |
| Route | LBSTA8 LBSTA DCT EBONY N567B TUDEP/M079F350 DCT 52N050W 55N040W 57N030W 57N020W DCT PIKIL/N0450F350 DCT SOVED DCT AMLAD DCT MAC/N0437F250 N562 TRN DCT TLA |
| Aircraft | B752/M-SDE3FGHIM3RWXY/LB1 |
Departure
| Time | N/A |
|---|---|
| Airport | Boston Logan International Airport (KBOS) |
Arrival
| Time | 2026-04-20 04:46 |
|---|---|
| Airport | Edinburgh Airport (EGPH) |
| Time | Latitude | Longitude | Altitude | Speed | Heading |
|---|---|---|---|---|---|
| 2026-04-20 03:09 | 57.07218 | -22.37137 | 35402 ft | 439 kts | 96° |
| 2026-04-20 03:10 | 57.06793 | -22.17559 | 35405 ft | 438 kts | 97° |
| 2026-04-20 03:10 | 57.06344 | -21.98285 | 35404 ft | 438 kts | 97° |
| 2026-04-20 03:11 | 57.05850 | -21.78442 | 35403 ft | 439 kts | 96° |
| 2026-04-20 03:11 | 57.05322 | -21.58447 | 35401 ft | 437 kts | 96° |
| 2026-04-20 03:12 | 57.04765 | -21.38585 | 35400 ft | 437 kts | 96° |
| 2026-04-20 03:12 | 57.04174 | -21.18595 | 35404 ft | 437 kts | 97° |
| 2026-04-20 03:13 | 57.03551 | -20.98653 | 35403 ft | 437 kts | 97° |
| 2026-04-20 03:13 | 57.02898 | -20.78767 | 35402 ft | 436 kts | 97° |
| 2026-04-20 03:14 | 57.02217 | -20.59002 | 35401 ft | 436 kts | 97° |
| 2026-04-20 03:14 | 57.01508 | -20.39295 | 35400 ft | 436 kts | 97° |
| 2026-04-20 03:15 | 57.00766 | -20.19546 | 35404 ft | 435 kts | 98° |
| 2026-04-20 03:15 | 56.99596 | -19.99899 | 35409 ft | 430 kts | 108° |
| 2026-04-20 03:16 | 56.96644 | -19.81441 | 35401 ft | 430 kts | 109° |
| 2026-04-20 03:16 | 56.93407 | -19.62838 | 35400 ft | 431 kts | 110° |
| 2026-04-20 03:17 | 56.90067 | -19.44152 | 35399 ft | 431 kts | 110° |
| 2026-04-20 03:17 | 56.86702 | -19.25584 | 35402 ft | 432 kts | 110° |
| 2026-04-20 03:18 | 56.83287 | -19.06942 | 35401 ft | 433 kts | 110° |
| 2026-04-20 03:18 | 56.79840 | -18.88314 | 35400 ft | 434 kts | 110° |
| 2026-04-20 03:19 | 56.76373 | -18.69761 | 35398 ft | 434 kts | 110° |
| 2026-04-20 03:19 | 56.72859 | -18.51140 | 35397 ft | 435 kts | 110° |
| 2026-04-20 03:20 | 56.69338 | -18.32658 | 35399 ft | 435 kts | 111° |
| 2026-04-20 03:20 | 56.65852 | -18.14536 | 35400 ft | 435 kts | 111° |
| 2026-04-20 03:21 | 56.62260 | -17.96042 | 35397 ft | 436 kts | 111° |
| 2026-04-20 03:21 | 56.58600 | -17.77374 | 35398 ft | 437 kts | 110° |
| 2026-04-20 03:22 | 56.54931 | -17.58840 | 35397 ft | 438 kts | 110° |
| 2026-04-20 03:22 | 56.51222 | -17.40275 | 35396 ft | 439 kts | 110° |
| 2026-04-20 03:23 | 56.47462 | -17.21638 | 35399 ft | 441 kts | 111° |
| 2026-04-20 03:23 | 56.43680 | -17.03060 | 35392 ft | 443 kts | 111° |
| 2026-04-20 03:24 | 56.39834 | -16.84345 | 35384 ft | 444 kts | 111° |
| 2026-04-20 03:24 | 56.35994 | -16.65832 | 35378 ft | 445 kts | 110° |
| 2026-04-20 03:25 | 56.32076 | -16.47117 | 35369 ft | 445 kts | 110° |
| 2026-04-20 03:25 | 56.28117 | -16.28383 | 35372 ft | 446 kts | 111° |
| 2026-04-20 03:26 | 56.24142 | -16.09738 | 35371 ft | 446 kts | 111° |
| 2026-04-20 03:26 | 56.20145 | -15.91165 | 35369 ft | 447 kts | 111° |
| 2026-04-20 03:27 | 56.16162 | -15.72818 | 35369 ft | 447 kts | 111° |
| 2026-04-20 03:27 | 56.13602 | -15.61116 | 35369 ft | 448 kts | 111° |
| 2026-04-20 03:28 | 56.11311 | -15.50693 | 35369 ft | 449 kts | 111° |
| 2026-04-20 03:28 | 56.07868 | -15.35135 | 35369 ft | 451 kts | 111° |
| 2026-04-20 03:29 | 56.05550 | -15.24724 | 35372 ft | 452 kts | 111° |
| 2026-04-20 03:29 | 56.03213 | -15.14281 | 35371 ft | 453 kts | 111° |
| 2026-04-20 03:30 | 56.00893 | -15.03786 | 35371 ft | 454 kts | 108° |
| 2026-04-20 03:30 | 55.99878 | -14.92794 | 35380 ft | 453 kts | 90° |
| 2026-04-20 03:31 | 56.00001 | -14.81568 | 35370 ft | 453 kts | 89° |
| 2026-04-20 03:31 | 56.00059 | -14.70238 | 35371 ft | 456 kts | 89° |
| 2026-04-20 03:32 | 56.00088 | -14.58938 | 35371 ft | 455 kts | 89° |
| 2026-04-20 03:32 | 56.00097 | -14.47597 | 35371 ft | 457 kts | 89° |
| 2026-04-20 03:33 | 56.00092 | -14.36302 | 35370 ft | 457 kts | 89° |
| 2026-04-20 03:33 | 56.00075 | -14.24943 | 35372 ft | 457 kts | 90° |
| 2026-04-20 03:34 | 56.00047 | -14.13587 | 35372 ft | 457 kts | 90° |
| 2026-04-20 03:34 | 56.00019 | -14.02245 | 35372 ft | 457 kts | 88° |
| 2026-04-20 03:35 | 56.00766 | -13.90991 | 35372 ft | 457 kts | 81° |
| 2026-04-20 03:35 | 56.01666 | -13.79781 | 35371 ft | 456 kts | 81° |
| 2026-04-20 03:36 | 56.02565 | -13.68561 | 35371 ft | 457 kts | 81° |
| 2026-04-20 03:36 | 56.03460 | -13.57317 | 35371 ft | 457 kts | 81° |
| 2026-04-20 03:37 | 56.04341 | -13.46113 | 35371 ft | 458 kts | 81° |
| 2026-04-20 03:37 | 56.05218 | -13.34840 | 35371 ft | 458 kts | 81° |
| 2026-04-20 03:38 | 56.06088 | -13.23520 | 35374 ft | 460 kts | 81° |
| 2026-04-20 03:38 | 56.06949 | -13.12174 | 35373 ft | 460 kts | 81° |
| 2026-04-20 03:39 | 56.07802 | -13.00798 | 35373 ft | 461 kts | 80° |
| 2026-04-20 03:39 | 56.08640 | -12.89475 | 35373 ft | 462 kts | 80° |
| 2026-04-20 03:40 | 56.09475 | -12.78060 | 35373 ft | 463 kts | 80° |
| 2026-04-20 03:40 | 56.10299 | -12.66625 | 35373 ft | 463 kts | 79° |
| 2026-04-20 03:41 | 56.11118 | -12.55116 | 35373 ft | 464 kts | 79° |
| 2026-04-20 03:41 | 56.11926 | -12.43616 | 35374 ft | 466 kts | 79° |
| 2026-04-20 03:42 | 56.12722 | -12.32122 | 35373 ft | 465 kts | 80° |
| 2026-04-20 03:42 | 56.13513 | -12.20543 | 35374 ft | 466 kts | 80° |
| 2026-04-20 03:43 | 56.14293 | -12.08945 | 35373 ft | 466 kts | 80° |
| 2026-04-20 03:43 | 56.15051 | -11.97531 | 35373 ft | 466 kts | 80° |
| 2026-04-20 03:44 | 56.15807 | -11.85961 | 35373 ft | 466 kts | 80° |
| 2026-04-20 03:44 | 56.16555 | -11.74363 | 35373 ft | 466 kts | 80° |
| 2026-04-20 03:45 | 56.17288 | -11.62817 | 35373 ft | 466 kts | 80° |
| 2026-04-20 03:45 | 56.18010 | -11.51270 | 35373 ft | 465 kts | 79° |
| 2026-04-20 03:46 | 56.18720 | -11.39732 | 35373 ft | 465 kts | 79° |
| 2026-04-20 03:46 | 56.19424 | -11.28121 | 35373 ft | 465 kts | 80° |
| 2026-04-20 03:47 | 56.20111 | -11.16601 | 35374 ft | 465 kts | 80° |
| 2026-04-20 03:47 | 56.20792 | -11.05008 | 35374 ft | 465 kts | 79° |
| 2026-04-20 03:48 | 56.21462 | -10.93396 | 35374 ft | 465 kts | 79° |
| 2026-04-20 03:48 | 56.22123 | -10.81771 | 35374 ft | 465 kts | 79° |
| 2026-04-20 03:49 | 56.22773 | -10.70142 | 35374 ft | 466 kts | 79° |
| 2026-04-20 03:49 | 56.23413 | -10.58481 | 35375 ft | 466 kts | 79° |
| 2026-04-20 03:50 | 56.24036 | -10.46922 | 35374 ft | 467 kts | 78° |
| 2026-04-20 03:50 | 56.24651 | -10.35308 | 35374 ft | 466 kts | 78° |
| 2026-04-20 03:51 | 56.25261 | -10.23596 | 35374 ft | 468 kts | 79° |
| 2026-04-20 03:51 | 56.25858 | -10.11897 | 35374 ft | 468 kts | 79° |
| 2026-04-20 03:52 | 56.25884 | -10.00068 | 35381 ft | 478 kts | 93° |
| 2026-04-20 03:52 | 56.24279 | -9.88349 | 35374 ft | 485 kts | 100° |
| 2026-04-20 03:53 | 56.22386 | -9.76678 | 35374 ft | 486 kts | 101° |
| 2026-04-20 03:53 | 56.20421 | -9.65085 | 35375 ft | 486 kts | 102° |
| 2026-04-20 03:54 | 56.18426 | -9.53553 | 35375 ft | 486 kts | 102° |
| 2026-04-20 03:54 | 56.16389 | -9.41909 | 35376 ft | 487 kts | 102° |
| 2026-04-20 03:55 | 56.14353 | -9.30364 | 35375 ft | 487 kts | 102° |
| 2026-04-20 03:55 | 56.12292 | -9.18765 | 35375 ft | 488 kts | 102° |
| 2026-04-20 03:56 | 56.10213 | -9.07135 | 35376 ft | 489 kts | 102° |
| 2026-04-20 03:56 | 56.08128 | -8.95550 | 35377 ft | 491 kts | 102° |
| 2026-04-20 03:57 | 56.06027 | -8.83944 | 35377 ft | 492 kts | 102° |
| 2026-04-20 03:57 | 56.03908 | -8.72316 | 35378 ft | 494 kts | 102° |
| 2026-04-20 03:58 | 56.01766 | -8.60633 | 35378 ft | 496 kts | 103° |
| 2026-04-20 03:58 | 55.99608 | -8.48940 | 35377 ft | 497 kts | 103° |
| 2026-04-20 03:59 | 55.97429 | -8.37204 | 35379 ft | 499 kts | 103° |
| 2026-04-20 03:59 | 55.95235 | -8.25467 | 35377 ft | 500 kts | 104° |
| 2026-04-20 04:00 | 55.93025 | -8.13715 | 35378 ft | 501 kts | 104° |
| 2026-04-20 04:00 | 55.90805 | -8.01979 | 35378 ft | 501 kts | 104° |
| 2026-04-20 04:01 | 55.88575 | -7.90264 | 35366 ft | 501 kts | 104° |
| 2026-04-20 04:01 | 55.86325 | -7.78513 | 35367 ft | 501 kts | 104° |
| 2026-04-20 04:02 | 55.84078 | -7.66852 | 35367 ft | 500 kts | 104° |
| 2026-04-20 04:02 | 55.81815 | -7.55175 | 35369 ft | 501 kts | 104° |
| 2026-04-20 04:03 | 55.79540 | -7.43514 | 35369 ft | 500 kts | 104° |
| 2026-04-20 04:03 | 55.77256 | -7.31874 | 35366 ft | 500 kts | 105° |
| 2026-04-20 04:04 | 55.76102 | -7.26016 | 34909 ft | 500 kts | 105° |
| 2026-04-20 04:04 | 55.74959 | -7.20243 | 34374 ft | 495 kts | 105° |
| 2026-04-20 04:04 | 55.73822 | -7.14515 | 33843 ft | 489 kts | 105° |
| 2026-04-20 04:04 | 55.72694 | -7.08839 | 33322 ft | 486 kts | 104° |
| 2026-04-20 04:05 | 55.71554 | -7.03120 | 32800 ft | 486 kts | 104° |
| 2026-04-20 04:05 | 55.70435 | -6.97522 | 32289 ft | 486 kts | 104° |
| 2026-04-20 04:05 | 55.69306 | -6.91889 | 31774 ft | 487 kts | 104° |
| 2026-04-20 04:05 | 55.68153 | -6.86154 | 31249 ft | 486 kts | 104° |
| 2026-04-20 04:06 | 55.67027 | -6.80574 | 30738 ft | 486 kts | 104° |
| 2026-04-20 04:06 | 55.65877 | -6.74890 | 30217 ft | 487 kts | 104° |
| 2026-04-20 04:06 | 55.64743 | -6.69300 | 29703 ft | 486 kts | 104° |
| 2026-04-20 04:06 | 55.63608 | -6.63722 | 29186 ft | 481 kts | 104° |
| 2026-04-20 04:07 | 55.62481 | -6.58203 | 28677 ft | 477 kts | 104° |
| 2026-04-20 04:07 | 55.61362 | -6.52736 | 28170 ft | 473 kts | 104° |
| 2026-04-20 04:07 | 55.60238 | -6.47253 | 27665 ft | 471 kts | 104° |
| 2026-04-20 04:07 | 55.59135 | -6.41893 | 27169 ft | 466 kts | 104° |
| 2026-04-20 04:08 | 55.58025 | -6.36512 | 26670 ft | 462 kts | 104° |
| 2026-04-20 04:08 | 55.56936 | -6.31243 | 26182 ft | 460 kts | 105° |
| 2026-04-20 04:08 | 55.55833 | -6.25927 | 25688 ft | 456 kts | 105° |
| 2026-04-20 04:08 | 55.54744 | -6.20686 | 25200 ft | 452 kts | 105° |
| 2026-04-20 04:09 | 55.53661 | -6.15492 | 24717 ft | 449 kts | 105° |
| 2026-04-20 04:09 | 55.52594 | -6.10389 | 24240 ft | 446 kts | 104° |
| 2026-04-20 04:09 | 55.51526 | -6.05290 | 23762 ft | 442 kts | 104° |
| 2026-04-20 04:09 | 55.50458 | -6.00202 | 23284 ft | 438 kts | 104° |
| 2026-04-20 04:10 | 55.49404 | -5.95191 | 22812 ft | 435 kts | 105° |
| 2026-04-20 04:10 | 55.48346 | -5.90175 | 22341 ft | 431 kts | 105° |
| 2026-04-20 04:10 | 55.47315 | -5.85301 | 21885 ft | 428 kts | 105° |
| 2026-04-20 04:10 | 55.46271 | -5.80378 | 21424 ft | 425 kts | 105° |
| 2026-04-20 04:11 | 55.45248 | -5.75565 | 20973 ft | 422 kts | 106° |
| 2026-04-20 04:11 | 55.44218 | -5.70732 | 20520 ft | 417 kts | 106° |
| 2026-04-20 04:11 | 55.43150 | -5.65958 | 20070 ft | 417 kts | 111° |
| 2026-04-20 04:11 | 55.41790 | -5.61440 | 19627 ft | 416 kts | 115° |
| 2026-04-20 04:12 | 55.40406 | -5.57033 | 19181 ft | 412 kts | 115° |
| 2026-04-20 04:12 | 55.39008 | -5.52617 | 18735 ft | 409 kts | 115° |
| 2026-04-20 04:12 | 55.37637 | -5.48319 | 18299 ft | 406 kts | 116° |
| 2026-04-20 04:12 | 55.36243 | -5.43971 | 17858 ft | 403 kts | 116° |
| 2026-04-20 04:13 | 55.34876 | -5.39720 | 17427 ft | 400 kts | 116° |
| 2026-04-20 04:13 | 55.33508 | -5.35477 | 16996 ft | 397 kts | 116° |
| 2026-04-20 04:13 | 55.32136 | -5.31233 | 16563 ft | 395 kts | 117° |
| 2026-04-20 04:13 | 55.30779 | -5.27043 | 16137 ft | 393 kts | 117° |
| 2026-04-20 04:14 | 55.29478 | -5.23032 | 15727 ft | 390 kts | 117° |
| 2026-04-20 04:14 | 55.28112 | -5.18831 | 15299 ft | 387 kts | 117° |
| 2026-04-20 04:14 | 55.26780 | -5.14737 | 14882 ft | 383 kts | 117° |
| 2026-04-20 04:14 | 55.25472 | -5.10727 | 14474 ft | 381 kts | 117° |
| 2026-04-20 04:15 | 55.24153 | -5.06691 | 14062 ft | 379 kts | 117° |
| 2026-04-20 04:15 | 55.22845 | -5.02693 | 13654 ft | 376 kts | 117° |
| 2026-04-20 04:15 | 55.21559 | -4.98769 | 13251 ft | 373 kts | 117° |
| 2026-04-20 04:15 | 55.20264 | -4.94825 | 12842 ft | 370 kts | 118° |
| 2026-04-20 04:16 | 55.18999 | -4.90978 | 12447 ft | 367 kts | 118° |
| 2026-04-20 04:16 | 55.17522 | -4.87384 | 12322 ft | 354 kts | 135° |
| 2026-04-20 04:16 | 55.15537 | -4.85072 | 12331 ft | 337 kts | 158° |
| 2026-04-20 04:16 | 55.13305 | -4.84188 | 12328 ft | 320 kts | 179° |
| 2026-04-20 04:17 | 55.11170 | -4.84653 | 12326 ft | 301 kts | 200° |
| 2026-04-20 04:17 | 55.09351 | -4.86186 | 12325 ft | 281 kts | 219° |
| 2026-04-20 04:17 | 55.07970 | -4.88450 | 12325 ft | 262 kts | 237° |
| 2026-04-20 04:17 | 55.07081 | -4.91066 | 12334 ft | 252 kts | 252° |
| 2026-04-20 04:18 | 55.06617 | -4.94046 | 12340 ft | 248 kts | 268° |
| 2026-04-20 04:18 | 55.06618 | -4.97021 | 12341 ft | 242 kts | 282° |
| 2026-04-20 04:18 | 55.07194 | -4.99625 | 12241 ft | 238 kts | 309° |
| 2026-04-20 04:18 | 55.08583 | -5.01567 | 11899 ft | 280 kts | 336° |
| 2026-04-20 04:19 | 55.10620 | -5.02424 | 11538 ft | 320 kts | 355° |
| 2026-04-20 04:19 | 55.12863 | -5.02100 | 11148 ft | 329 kts | 12° |
| 2026-04-20 04:19 | 55.15010 | -5.00558 | 10750 ft | 335 kts | 30° |
| 2026-04-20 04:19 | 55.16761 | -4.97921 | 10699 ft | 323 kts | 48° |
| 2026-04-20 04:20 | 55.17876 | -4.94669 | 10699 ft | 309 kts | 66° |
| 2026-04-20 04:20 | 55.18313 | -4.91087 | 10702 ft | 297 kts | 86° |
| 2026-04-20 04:20 | 55.18208 | -4.87533 | 10701 ft | 284 kts | 92° |
| 2026-04-20 04:20 | 55.18059 | -4.84113 | 10696 ft | 279 kts | 91° |
| 2026-04-20 04:21 | 55.17915 | -4.80713 | 10699 ft | 280 kts | 91° |
| 2026-04-20 04:21 | 55.17771 | -4.77329 | 10701 ft | 280 kts | 91° |
| 2026-04-20 04:21 | 55.17625 | -4.73907 | 10703 ft | 280 kts | 91° |
| 2026-04-20 04:21 | 55.17480 | -4.70522 | 10705 ft | 280 kts | 91° |
| 2026-04-20 04:22 | 55.17365 | -4.67853 | 10707 ft | 280 kts | 91° |
| 2026-04-20 04:22 | 55.17235 | -4.64430 | 10708 ft | 279 kts | 88° |
| 2026-04-20 04:22 | 55.17389 | -4.61045 | 10715 ft | 277 kts | 76° |
| 2026-04-20 04:22 | 55.17859 | -4.57775 | 10731 ft | 290 kts | 69° |
| 2026-04-20 04:23 | 55.18576 | -4.54248 | 10763 ft | 322 kts | 66° |
| 2026-04-20 04:23 | 55.19449 | -4.50525 | 10781 ft | 339 kts | 64° |
| 2026-04-20 04:23 | 55.20392 | -4.46749 | 10785 ft | 341 kts | 63° |
| 2026-04-20 04:23 | 55.21377 | -4.42948 | 10788 ft | 342 kts | 63° |
| 2026-04-20 04:24 | 55.22394 | -4.39107 | 10791 ft | 342 kts | 62° |
| 2026-04-20 04:24 | 55.23392 | -4.35373 | 10793 ft | 342 kts | 62° |
| 2026-04-20 04:24 | 55.24410 | -4.31583 | 10642 ft | 346 kts | 63° |
| 2026-04-20 04:24 | 55.25431 | -4.27788 | 10332 ft | 339 kts | 63° |
| 2026-04-20 04:25 | 55.26436 | -4.24060 | 10034 ft | 340 kts | 63° |
| 2026-04-20 04:25 | 55.27455 | -4.20272 | 9730 ft | 338 kts | 63° |
| 2026-04-20 04:25 | 55.28459 | -4.16538 | 9429 ft | 337 kts | 64° |
| 2026-04-20 04:25 | 55.29446 | -4.12861 | 9132 ft | 336 kts | 64° |
| 2026-04-20 04:26 | 55.30445 | -4.09134 | 8830 ft | 335 kts | 64° |
| 2026-04-20 04:26 | 55.31427 | -4.05465 | 8532 ft | 333 kts | 64° |
| 2026-04-20 04:26 | 55.32415 | -4.01765 | 8230 ft | 332 kts | 64° |
| 2026-04-20 04:26 | 55.33374 | -3.98171 | 7930 ft | 324 kts | 64° |
| 2026-04-20 04:27 | 55.34325 | -3.94603 | 7625 ft | 317 kts | 64° |
| 2026-04-20 04:27 | 55.35241 | -3.91161 | 7325 ft | 311 kts | 64° |
| 2026-04-20 04:27 | 55.36150 | -3.87735 | 7032 ft | 304 kts | 64° |
| 2026-04-20 04:27 | 55.37026 | -3.84432 | 6757 ft | 298 kts | 64° |
| 2026-04-20 04:28 | 55.37899 | -3.81138 | 6478 ft | 293 kts | 64° |
| 2026-04-20 04:28 | 55.38741 | -3.77951 | 6204 ft | 288 kts | 64° |
| 2026-04-20 04:28 | 55.39582 | -3.74765 | 5925 ft | 283 kts | 64° |
| 2026-04-20 04:28 | 55.40398 | -3.71671 | 5651 ft | 279 kts | 64° |
| 2026-04-20 04:29 | 55.41213 | -3.68581 | 5373 ft | 275 kts | 64° |
| 2026-04-20 04:29 | 55.42009 | -3.65555 | 5098 ft | 272 kts | 64° |
| 2026-04-20 04:29 | 55.42799 | -3.62546 | 4821 ft | 268 kts | 64° |
| 2026-04-20 04:29 | 55.43570 | -3.59606 | 4547 ft | 265 kts | 64° |
| 2026-04-20 04:30 | 55.44344 | -3.56654 | 4269 ft | 262 kts | 64° |
| 2026-04-20 04:30 | 55.45103 | -3.53751 | 3994 ft | 260 kts | 64° |
| 2026-04-20 04:30 | 55.45855 | -3.50872 | 3717 ft | 257 kts | 64° |
| 2026-04-20 04:30 | 55.46603 | -3.48008 | 3440 ft | 255 kts | 64° |
| 2026-04-20 04:31 | 55.47342 | -3.45170 | 3258 ft | 249 kts | 64° |
| 2026-04-20 04:31 | 55.48052 | -3.42443 | 3255 ft | 247 kts | 64° |
| 2026-04-20 04:31 | 55.48789 | -3.39608 | 3489 ft | 260 kts | 64° |
| 2026-04-20 04:31 | 55.49519 | -3.36796 | 4564 ft | 254 kts | 64° |
| 2026-04-20 04:32 | 55.50384 | -3.33988 | 5014 ft | 266 kts | 54° |
| 2026-04-20 04:32 | 55.51532 | -3.31510 | 4996 ft | 261 kts | 48° |
| 2026-04-20 04:32 | 55.52729 | -3.29063 | 4997 ft | 263 kts | 48° |
| 2026-04-20 04:32 | 55.53907 | -3.26643 | 4997 ft | 261 kts | 48° |
| 2026-04-20 04:33 | 55.55093 | -3.24210 | 4996 ft | 259 kts | 48° |
| 2026-04-20 04:33 | 55.56245 | -3.21851 | 4997 ft | 260 kts | 48° |
| 2026-04-20 04:33 | 55.57364 | -3.19561 | 4996 ft | 260 kts | 48° |
| 2026-04-20 04:33 | 55.58553 | -3.17121 | 4997 ft | 260 kts | 48° |
| 2026-04-20 04:34 | 55.59721 | -3.14724 | 4975 ft | 261 kts | 48° |
| 2026-04-20 04:34 | 55.60931 | -3.12245 | 4548 ft | 267 kts | 48° |
| 2026-04-20 04:34 | 55.62145 | -3.09766 | 4104 ft | 271 kts | 48° |
| 2026-04-20 04:34 | 55.63408 | -3.07258 | 3654 ft | 273 kts | 45° |
| 2026-04-20 04:35 | 55.64782 | -3.04965 | 3271 ft | 273 kts | 41° |
| 2026-04-20 04:35 | 55.66240 | -3.02878 | 3136 ft | 263 kts | 37° |
| 2026-04-20 04:35 | 55.67713 | -3.01110 | 3011 ft | 254 kts | 23° |
| 2026-04-20 04:35 | 55.69413 | -3.00338 | 3004 ft | 252 kts | 9° |
| 2026-04-20 04:36 | 55.72909 | -2.99809 | 2997 ft | 253 kts | 2° |
| 2026-04-20 04:36 | 55.74646 | -2.99702 | 2996 ft | 249 kts | 0° |
| 2026-04-20 04:36 | 55.76396 | -2.99750 | 2999 ft | 249 kts | 356° |
| 2026-04-20 04:37 | 55.78101 | -2.99984 | 2992 ft | 239 kts | 353° |
| 2026-04-20 04:37 | 55.79689 | -3.00370 | 2993 ft | 226 kts | 352° |
| 2026-04-20 04:37 | 55.81220 | -3.00850 | 2992 ft | 220 kts | 350° |
| 2026-04-20 04:37 | 55.82706 | -3.01398 | 2996 ft | 220 kts | 349° |
| 2026-04-20 04:38 | 55.84213 | -3.01985 | 2996 ft | 220 kts | 347° |
| 2026-04-20 04:38 | 55.85688 | -3.02628 | 2996 ft | 220 kts | 347° |
| 2026-04-20 04:38 | 55.87182 | -3.03283 | 2996 ft | 220 kts | 347° |
| 2026-04-20 04:38 | 55.88656 | -3.03929 | 2997 ft | 220 kts | 347° |
| 2026-04-20 04:39 | 55.90154 | -3.04586 | 2996 ft | 220 kts | 347° |
| 2026-04-20 04:39 | 55.91617 | -3.05230 | 2992 ft | 214 kts | 347° |
| 2026-04-20 04:39 | 55.93019 | -3.05851 | 2987 ft | 202 kts | 347° |
| 2026-04-20 04:39 | 55.94369 | -3.06582 | 2996 ft | 201 kts | 342° |
| 2026-04-20 04:40 | 55.95674 | -3.07408 | 2996 ft | 201 kts | 341° |
| 2026-04-20 04:40 | 55.96977 | -3.08263 | 2987 ft | 193 kts | 341° |
| 2026-04-20 04:40 | 55.98188 | -3.09065 | 2984 ft | 182 kts | 341° |
| 2026-04-20 04:40 | 55.99381 | -3.09837 | 2996 ft | 181 kts | 344° |
| 2026-04-20 04:41 | 56.00616 | -3.09967 | 3008 ft | 177 kts | 15° |
| 2026-04-20 04:41 | 56.01826 | -3.09766 | 2999 ft | 178 kts | 346° |
| 2026-04-20 04:41 | 56.02843 | -3.10992 | 3028 ft | 182 kts | 304° |
| 2026-04-20 04:41 | 56.03136 | -3.13154 | 2967 ft | 190 kts | 264° |
| 2026-04-20 04:42 | 56.02587 | -3.15294 | 2748 ft | 190 kts | 235° |
| 2026-04-20 04:42 | 56.01834 | -3.17212 | 2504 ft | 190 kts | 238° |
| 2026-04-20 04:42 | 56.01120 | -3.19212 | 2253 ft | 190 kts | 239° |
| 2026-04-20 04:42 | 56.00418 | -3.21234 | 1997 ft | 190 kts | 239° |
| 2026-04-20 04:43 | 55.99747 | -3.23198 | 1742 ft | 183 kts | 239° |
| 2026-04-20 04:43 | 55.99100 | -3.25109 | 1500 ft | 174 kts | 239° |
| 2026-04-20 04:43 | 55.98602 | -3.26584 | 1334 ft | 161 kts | 239° |
| 2026-04-20 04:43 | 55.98579 | -3.26653 | 1325 ft | 160 kts | 239° |
| 2026-04-20 04:44 | 55.98433 | -3.27085 | 1269 ft | 156 kts | 239° |
| 2026-04-20 04:44 | 55.97915 | -3.28618 | 1050 ft | 142 kts | 239° |
| 2026-04-20 04:44 | 55.97420 | -3.30087 | 855 ft | 135 kts | 239° |
| 2026-04-20 04:45 | 55.96941 | -3.31506 | 684 ft | 134 kts | 239° |
| 2026-04-20 04:45 | 55.96457 | -3.32946 | 507 ft | 133 kts | 240° |
| 2026-04-20 04:45 | 55.95985 | -3.34365 | 343 ft | 134 kts | 239° |
| 2026-04-20 04:45 | 55.95504 | -3.35787 | 151 ft | 133 kts | 239° |
| 2026-04-20 04:46 | 55.95043 | -3.37134 | 106 ft | 118 kts | 239° |
| 2026-04-20 04:46 | 55.94702 | -3.38126 | 108 ft | 62 kts | 239° |
| 2026-04-20 04:46 | 55.94521 | -3.38660 | 115 ft | 36 kts | 239° |
| 2026-04-20 04:46 | 55.94428 | -3.38935 | 118 ft | 13 kts | 231° |
| 2026-04-20 04:47 | 55.94355 | -3.38931 | 119 ft | 10 kts | 150° |
| 2026-04-20 04:47 | 55.94291 | -3.38857 | 120 ft | 8 kts | 127° |
| 2026-04-20 04:47 | 55.94300 | -3.38742 | 119 ft | 11 kts | 62° |
| 2026-04-20 04:47 | 55.94346 | -3.38606 | 117 ft | 14 kts | 59° |
| 2026-04-20 04:48 | 55.94404 | -3.38436 | 114 ft | 17 kts | 60° |
| 2026-04-20 04:48 | 55.94471 | -3.38237 | 111 ft | 20 kts | 59° |
| 2026-04-20 04:48 | 55.94551 | -3.38001 | 107 ft | 23 kts | 59° |
| 2026-04-20 04:48 | 55.94639 | -3.37743 | 105 ft | 25 kts | 59° |
| 2026-04-20 04:49 | 55.94730 | -3.37474 | 104 ft | 24 kts | 59° |
| 2026-04-20 04:49 | 55.94815 | -3.37222 | 104 ft | 23 kts | 59° |
| 2026-04-20 04:49 | 55.94896 | -3.36983 | 104 ft | 21 kts | 58° |
| 2026-04-20 04:49 | 55.94880 | -3.36793 | 104 ft | 16 kts | 158° |
| 2026-04-20 04:50 | 55.94802 | -3.36778 | 103 ft | 10 kts | 179° |
| 2026-04-20 04:50 | 55.94740 | -3.36741 | 103 ft | 8 kts | 172° |
| 2026-04-20 04:50 | 55.94706 | -3.36704 | 104 ft | 5 kts | 105° |
| 2026-04-20 04:50 | 55.94704 | -3.36662 | 106 ft | 2 kts | 91° |
| 2026-04-20 04:51 | 55.94704 | -3.36639 | 107 ft | 1 kts | 90° |
| 2026-04-20 04:51 | 55.94704 | -3.36625 | 107 ft | 0 kts | 91° |